VH314 YWVA-YSSY
Flight info
| Callsign | VH314 |
|---|---|
| Flight time | 0h 9m |
| Altitude | 5500 |
| Route | SSY DCT |
| Aircraft | C152/L-V/N |
Departure
| Time | 2026-05-07 03:21 |
|---|---|
| Airport | Warnervale Airport (YWVA) |
Arrival
| Time | 2026-05-07 03:31 |
|---|---|
| Airport | Sydney Kingsford Smith International Airport (YSSY) |
| Time | Latitude | Longitude | Altitude | Speed | Heading |
|---|---|---|---|---|---|
| 2026-05-07 03:21 | -33.24748 | 151.45269 | 884 ft | 50 kts | 217° |
| 2026-05-07 03:21 | -33.25132 | 151.45489 | 901 ft | 70 kts | 170° |
| 2026-05-07 03:21 | -33.25603 | 151.45653 | 784 ft | 65 kts | 193° |
| 2026-05-07 03:22 | -33.26023 | 151.45587 | 782 ft | 60 kts | 208° |
| 2026-05-07 03:22 | -33.26283 | 151.45577 | 972 ft | 51 kts | 190° |
| 2026-05-07 03:22 | -33.26689 | 151.45713 | 892 ft | 58 kts | 191° |
| 2026-05-07 03:22 | -33.26927 | 151.45685 | 1023 ft | 40 kts | 222° |
| 2026-05-07 03:23 | -33.27156 | 151.45557 | 1119 ft | 45 kts | 200° |
| 2026-05-07 03:23 | -33.27532 | 151.45676 | 1191 ft | 50 kts | 184° |
| 2026-05-07 03:23 | -33.29315 | 151.46064 | 1259 ft | 2603 kts | 171° |
| 2026-05-07 03:23 | -33.41861 | 151.44099 | 1264 ft | 2479 kts | 189° |
| 2026-05-07 03:24 | -33.56766 | 151.35208 | 1264 ft | 2604 kts | 177° |
| 2026-05-07 03:24 | -33.68754 | 151.32145 | 1297 ft | 51 kts | 199° |
| 2026-05-07 03:24 | -33.69172 | 151.32319 | 1174 ft | 68 kts | 186° |
| 2026-05-07 03:24 | -33.69677 | 151.32460 | 917 ft | 71 kts | 194° |
| 2026-05-07 03:25 | -33.70161 | 151.32458 | 747 ft | 74 kts | 202° |
| 2026-05-07 03:25 | -33.70661 | 151.32472 | 597 ft | 70 kts | 206° |
| 2026-05-07 03:25 | -33.71120 | 151.32331 | 444 ft | 70 kts | 215° |
| 2026-05-07 03:25 | -33.71574 | 151.32261 | 436 ft | 64 kts | 205° |
| 2026-05-07 03:26 | -33.71984 | 151.32171 | 369 ft | 58 kts | 220° |
| 2026-05-07 03:26 | -33.72393 | 151.31987 | 303 ft | 67 kts | 209° |
| 2026-05-07 03:26 | -33.72767 | 151.31947 | 326 ft | 59 kts | 213° |
| 2026-05-07 03:26 | -33.73092 | 151.31945 | 439 ft | 36 kts | 225° |
| 2026-05-07 03:27 | -33.73362 | 151.31895 | 543 ft | 46 kts | 211° |
| 2026-05-07 03:27 | -33.73679 | 151.31943 | 598 ft | 41 kts | 216° |
| 2026-05-07 03:27 | -33.73957 | 151.31921 | 586 ft | 57 kts | 207° |
| 2026-05-07 03:27 | -33.74347 | 151.31887 | 587 ft | 48 kts | 217° |
| 2026-05-07 03:28 | -33.74607 | 151.31680 | 638 ft | 47 kts | 232° |
| 2026-05-07 03:28 | -33.74830 | 151.31612 | 777 ft | 55 kts | 210° |
| 2026-05-07 03:28 | -33.75204 | 151.31648 | 827 ft | 58 kts | 196° |
| 2026-05-07 03:28 | -33.75616 | 151.31671 | 902 ft | 32 kts | 213° |
| 2026-05-07 03:29 | -33.75861 | 151.31657 | 901 ft | 49 kts | 207° |
| 2026-05-07 03:29 | -33.76156 | 151.31919 | 961 ft | 75 kts | 145° |
| 2026-05-07 03:29 | -33.76497 | 151.32136 | 951 ft | 51 kts | 206° |
| 2026-05-07 03:29 | -33.76922 | 151.32086 | 761 ft | 70 kts | 200° |
| 2026-05-07 03:30 | -33.77433 | 151.32148 | 595 ft | 79 kts | 189° |
| 2026-05-07 03:30 | -33.77948 | 151.32273 | 478 ft | 74 kts | 189° |
| 2026-05-07 03:30 | -33.78925 | 151.32140 | 1057 ft | 0 kts | 188° |
| 2026-05-07 03:30 | -33.91458 | 151.32046 | 1062 ft | 2302 kts | 208° |
| 2026-05-07 03:31 | -33.92562 | 151.32022 | 1084 ft | 52 kts | 234° |
| 2026-05-07 03:31 | -33.92797 | 151.31663 | 903 ft | 49 kts | 242° |
| 2026-05-07 03:31 | -33.92740 | 151.31352 | 1067 ft | 40 kts | 286° |
| 2026-05-07 03:31 | -33.92555 | 151.31077 | 1041 ft | 54 kts | 278° |
| 2026-05-07 03:32 | -33.92393 | 151.30640 | 877 ft | 58 kts | 279° |
| 2026-05-07 03:32 | -33.92180 | 151.30198 | 582 ft | 65 kts | 293° |
| 2026-05-07 03:32 | -33.91749 | 151.29934 | 311 ft | 72 kts | 329° |
| 2026-05-07 03:32 | -33.91319 | 151.29707 | 147 ft | 64 kts | 308° |
| 2026-05-07 03:33 | -33.91070 | 151.29370 | 131 ft | 45 kts | 292° |
| 2026-05-07 03:33 | -33.90882 | 151.29117 | 180 ft | 42 kts | 291° |
| 2026-05-07 03:33 | -33.90804 | 151.28821 | 206 ft | 33 kts | 270° |
| 2026-05-07 03:33 | -33.90765 | 151.28518 | 183 ft | 40 kts | 276° |
| 2026-05-07 03:34 | -33.90738 | 151.28210 | 213 ft | 38 kts | 263° |
| 2026-05-07 03:34 | -33.90819 | 151.27945 | 259 ft | 35 kts | 256° |
| 2026-05-07 03:34 | -33.90931 | 151.27706 | 315 ft | 32 kts | 252° |
| 2026-05-07 03:34 | -33.90978 | 151.27436 | 295 ft | 34 kts | 286° |
| 2026-05-07 03:35 | -33.90957 | 151.27143 | 313 ft | 35 kts | 268° |
| 2026-05-07 03:35 | -33.90989 | 151.26874 | 266 ft | 32 kts | 274° |
| 2026-05-07 03:35 | -33.90927 | 151.26636 | 256 ft | 29 kts | 272° |
| 2026-05-07 03:35 | -33.90847 | 151.26442 | 312 ft | 36 kts | 309° |
| 2026-05-07 03:36 | -33.90519 | 151.26461 | 384 ft | 53 kts | 341° |
| 2026-05-07 03:36 | -33.90387 | 151.26323 | 272 ft | 31 kts | 257° |
| 2026-05-07 03:36 | -33.90409 | 151.26258 | 258 ft | 0 kts | 286° |